Time;durP1;ratioP1;P1;durP2;ratioP2;P2;SDS_P1;SDS_P2;PMS_P1;PMS_P2;Temp;Humidity;BMP_temperature;BMP_pressure;BME280_temperature;BME280_humidity;BME280_pressure;Samples;Min_cycle;Max_cycle;Signal;HPM_P1;HPM_P2
2024/02/11 00:01:49;;;;;;;2.92;1.30;;;11.40;99.90;;;;;;5045395;23;20263;-94
2024/02/11 00:03:50;;;;;;;2.92;1.30;;;11.30;99.90;;;;;;5044714;23;20474;-94
2024/02/11 00:05:51;;;;;;;3.42;1.20;;;11.30;99.90;;;;;;5069375;23;20158;-94
2024/02/11 00:07:52;;;;;;;1.60;1.13;;;11.40;99.90;;;;;;5044800;23;20241;-94
2024/02/11 00:09:53;;;;;;;4.40;1.10;;;11.40;99.90;;;;;;5044709;23;20234;-94
2024/02/11 00:11:54;;;;;;;3.58;1.00;;;11.60;99.90;;;;;;5044786;23;20151;-95
2024/02/11 00:13:55;;;;;;;1.77;1.08;;;11.50;99.90;;;;;;5069097;23;20161;-95
2024/02/11 00:15:56;;;;;;;3.17;1.38;;;11.50;99.90;;;;;;5069030;23;20181;-94
2024/02/11 00:17:59;;;;;;;3.80;1.50;;;11.60;99.90;;;;;;5044299;23;20238;-94
2024/02/11 00:20:00;;;;;;;4.57;1.60;;;11.50;99.90;;;;;;5069129;23;20219;-94
2024/02/11 00:22:01;;;;;;;2.20;1.25;;;11.40;99.90;;;;;;5069317;23;20158;-95
2024/02/11 00:24:08;;;;;;;2.72;1.20;;;11.30;99.90;;;;;;5069256;23;20181;-94
2024/02/11 00:26:09;;;;;;;1.55;1.05;;;11.20;99.90;;;;;;5068758;23;20158;-94
2024/02/11 00:28:10;;;;;;;2.03;1.20;;;11.20;99.90;;;;;;5046092;23;20182;-93
2024/02/11 00:30:11;;;;;;;1.67;0.93;;;11.10;99.90;;;;;;5068757;23;20197;-95
2024/02/11 00:32:15;;;;;;;2.30;1.17;;;11.00;99.90;;;;;;5068905;23;20154;-94
2024/02/11 00:34:17;;;;;;;2.50;1.42;;;10.90;99.90;;;;;;5044752;23;20265;-95
2024/02/11 00:36:18;;;;;;;1.92;1.27;;;10.90;99.90;;;;;;5045058;23;20189;-95
2024/02/11 00:38:21;;;;;;;4.43;2.22;;;10.80;99.90;;;;;;5045893;23;20277;-96
2024/02/11 00:40:27;;;;;;;3.33;1.85;;;10.90;99.90;;;;;;5044955;23;20186;-94
2024/02/11 00:42:34;;;;;;;3.90;1.90;;;11.00;99.90;;;;;;5044873;23;20154;-93
2024/02/11 00:44:35;;;;;;;5.40;3.15;;;10.80;99.90;;;;;;5044588;23;20158;-95
2024/02/11 00:46:36;;;;;;;6.00;3.30;;;10.70;99.90;;;;;;5044426;23;20182;-95
2024/02/11 00:48:37;;;;;;;3.60;1.92;;;10.60;99.90;;;;;;5068855;23;20213;-95
2024/02/11 00:50:38;;;;;;;6.38;2.85;;;10.40;99.90;;;;;;5044502;23;20202;-94
2024/02/11 00:52:44;;;;;;;4.60;2.33;;;10.30;99.90;;;;;;5045025;23;20155;-94
2024/02/11 00:54:45;;;;;;;5.10;2.30;;;10.40;99.90;;;;;;5069407;23;20510;-95
2024/02/11 00:56:55;;;;;;;4.45;1.77;;;10.30;99.90;;;;;;5069168;23;20157;-94
2024/02/11 00:58:57;;;;;;;5.93;2.80;;;10.20;99.90;;;;;;5070319;23;20169;-93
2024/02/11 01:01:04;;;;;;;3.00;1.80;;;10.30;99.90;;;;;;5069178;23;20181;-93
2024/02/11 01:03:05;;;;;;;3.67;1.70;;;10.30;99.90;;;;;;5044504;23;20193;-94
2024/02/11 01:05:07;;;;;;;5.75;1.80;;;10.40;99.90;;;;;;5044505;23;20154;-94
2024/02/11 01:07:08;;;;;;;4.55;2.00;;;10.40;99.90;;;;;;5044570;23;20233;-94
2024/02/11 01:09:09;;;;;;;3.38;1.83;;;10.40;99.90;;;;;;5068522;23;20185;-94
2024/02/11 01:11:10;;;;;;;2.88;1.50;;;10.30;99.90;;;;;;5044758;23;20158;-94
2024/02/11 01:13:13;;;;;;;2.65;1.48;;;10.10;99.90;;;;;;5044678;23;20150;-93
2024/02/11 01:15:16;;;;;;;2.53;1.38;;;10.20;99.90;;;;;;5045012;23;20471;-96
2024/02/11 01:17:19;;;;;;;3.58;2.03;;;10.30;99.90;;;;;;5068806;23;20207;-94
2024/02/11 01:19:20;;;;;;;2.17;1.23;;;10.30;99.90;;;;;;5044648;23;20575;-94
2024/02/11 01:21:23;;;;;;;3.65;1.73;;;10.20;99.90;;;;;;5044439;23;20147;-95
2024/02/11 01:23:24;;;;;;;2.88;1.30;;;10.10;99.90;;;;;;5068312;23;20683;-94
2024/02/11 01:25:25;;;;;;;1.95;1.30;;;10.10;99.90;;;;;;5044789;23;20245;-96
2024/02/11 01:27:26;;;;;;;4.50;1.52;;;10.10;99.90;;;;;;5068852;23;20528;-94
2024/02/11 01:29:27;;;;;;;1.65;1.00;;;10.10;99.90;;;;;;5044561;23;20193;-93
2024/02/11 01:31:32;;;;;;;2.05;1.15;;;10.10;99.90;;;;;;5044910;23;20233;-93
2024/02/11 01:33:33;;;;;;;4.55;1.48;;;10.10;99.90;;;;;;5044720;23;20158;-93
2024/02/11 01:35:34;;;;;;;2.80;1.65;;;10.00;99.90;;;;;;5069210;23;20473;-95
2024/02/11 01:37:40;;;;;;;3.53;1.27;;;10.10;99.90;;;;;;5068872;23;20205;-94
2024/02/11 01:39:41;;;;;;;3.70;1.27;;;9.80;99.90;;;;;;5070082;23;20598;-94
2024/02/11 01:41:42;;;;;;;3.22;1.25;;;9.80;99.90;;;;;;5071303;23;20149;-96
2024/02/11 01:43:45;;;;;;;2.22;1.30;;;9.80;99.90;;;;;;5071385;23;20146;-95
2024/02/11 01:45:47;;;;;;;2.80;1.23;;;9.90;99.90;;;;;;5045550;23;20154;-93
2024/02/11 01:47:53;;;;;;;1.15;0.70;;;10.00;99.90;;;;;;5045934;23;20193;-94
2024/02/11 01:49:55;;;;;;;5.90;1.08;;;9.90;99.90;;;;;;5071176;23;20250;-94
2024/02/11 01:51:59;;;;;;;1.85;0.95;;;9.80;99.90;;;;;;5046030;23;20161;-95
2024/02/11 01:54:04;;;;;;;2.83;1.20;;;9.90;99.90;;;;;;5046273;23;20245;-94
2024/02/11 01:56:06;;;;;;;1.88;1.10;;;9.70;99.90;;;;;;5045826;23;20157;-95
2024/02/11 01:58:08;;;;;;;1.50;1.20;;;9.60;99.90;;;;;;5069716;23;20177;-93
2024/02/11 02:00:10;;;;;;;3.65;1.38;;;9.60;99.90;;;;;;5046024;23;20154;-94
2024/02/11 02:02:17;;;;;;;3.63;1.35;;;9.70;99.90;;;;;;5070113;23;20276;-94
2024/02/11 02:04:18;;;;;;;2.15;1.17;;;9.70;99.90;;;;;;5094374;23;20480;-94
2024/02/11 02:06:22;;;;;;;3.35;1.50;;;9.70;99.90;;;;;;5070317;23;20161;-94
2024/02/11 02:08:27;;;;;;;3.30;1.17;;;9.80;99.90;;;;;;5045680;23;20184;-94
2024/02/11 02:10:28;;;;;;;2.97;0.73;;;9.70;99.90;;;;;;5045987;23;20194;-93
2024/02/11 02:12:29;;;;;;;4.43;1.42;;;9.70;99.90;;;;;;5046425;23;20517;-93
2024/02/11 02:14:30;;;;;;;2.78;1.40;;;9.60;99.90;;;;;;5046447;23;20154;-94
2024/02/11 02:16:31;;;;;;;4.03;1.42;;;9.70;99.90;;;;;;5046035;23;20169;-94
2024/02/11 02:18:34;;;;;;;1.98;1.27;;;9.70;99.90;;;;;;5045782;23;20278;-95
2024/02/11 02:20:35;;;;;;;4.47;1.35;;;9.60;99.90;;;;;;5070495;23;20240;-96
2024/02/11 02:22:36;;;;;;;5.00;2.20;;;9.60;99.90;;;;;;5046051;23;20154;-94
2024/02/11 02:24:37;;;;;;;3.28;1.52;;;9.70;99.90;;;;;;5046131;23;20181;-96
2024/02/11 02:26:38;;;;;;;3.65;1.90;;;9.70;99.90;;;;;;5070290;23;20158;-95
2024/02/11 02:28:39;;;;;;;4.00;1.88;;;9.70;99.90;;;;;;5069779;23;20216;-94
2024/02/11 02:30:49;;;;;;;2.70;1.60;;;9.80;99.90;;;;;;5069948;23;20558;-94
2024/02/11 02:32:50;;;;;;;10.13;1.58;;;9.80;99.90;;;;;;5046024;23;20178;-95
2024/02/11 02:34:51;;;;;;;4.20;1.77;;;9.80;99.90;;;;;;5070010;23;20157;-94
2024/02/11 02:36:52;;;;;;;2.85;1.92;;;9.80;99.90;;;;;;5069740;23;20177;-95
2024/02/11 02:38:53;;;;;;;4.25;1.60;;;9.80;99.90;;;;;;5045679;23;20154;-94
2024/02/11 02:40:54;;;;;;;2.40;1.50;;;9.70;99.90;;;;;;5069887;23;20157;-95
2024/02/11 02:42:57;;;;;;;3.08;1.80;;;9.80;99.90;;;;;;5069843;23;20157;-96
2024/02/11 02:44:59;;;;;;;6.82;2.13;;;9.80;99.90;;;;;;5069923;23;20560;-94
2024/02/11 02:47:00;;;;;;;3.17;1.30;;;9.90;99.90;;;;;;5045600;23;20158;-93
2024/02/11 02:49:01;;;;;;;3.95;1.75;;;9.80;99.90;;;;;;5069515;23;20161;-93
2024/02/11 02:51:02;;;;;;;4.03;1.73;;;9.70;99.90;;;;;;5045535;23;20493;-95
2024/02/11 02:53:07;;;;;;;1.75;0.90;;;9.50;99.90;;;;;;5045516;23;20182;-95
2024/02/11 02:55:08;;;;;;;5.25;0.57;;;9.40;99.90;;;;;;5045474;23;20150;-95
2024/02/11 02:57:13;;;;;;;7.78;0.80;;;9.30;99.90;;;;;;5045242;23;20672;-93
2024/02/11 02:59:16;;;;;;;1.05;0.73;;;9.30;99.90;;;;;;5069755;23;20161;-94
2024/02/11 03:01:26;;;;;;;3.78;1.48;;;9.10;99.90;;;;;;5045480;23;20165;-95
2024/02/11 03:03:26;;;;;;;5.32;0.68;;;9.10;99.90;;;;;;5045502;23;20683;-93
2024/02/11 03:05:27;;;;;;;4.35;0.73;;;9.00;99.90;;;;;;5045804;23;20159;-94
2024/02/11 03:07:28;;;;;;;3.00;0.93;;;9.10;99.90;;;;;;5047315;23;20202;-94
2024/02/11 03:09:29;;;;;;;2.42;0.60;;;9.00;99.90;;;;;;5069562;23;20668;-93
2024/02/11 03:11:30;;;;;;;4.93;0.98;;;8.90;99.90;;;;;;5045264;23;20158;-94
2024/02/11 03:13:31;;;;;;;3.55;0.70;;;8.80;99.90;;;;;;5069893;23;20505;-95
2024/02/11 03:15:32;;;;;;;2.38;0.60;;;8.80;99.90;;;;;;5045366;23;20257;-95
2024/02/11 03:17:33;;;;;;;6.20;0.90;;;8.80;99.90;;;;;;5045327;23;20237;-94
2024/02/11 03:19:34;;;;;;;3.10;0.95;;;8.80;99.90;;;;;;5069391;23;20529;-94
2024/02/11 03:21:39;;;;;;;1.27;0.60;;;8.80;99.90;;;;;;5069205;23;20240;-96
2024/02/11 03:23:40;;;;;;;11.02;1.65;;;8.80;99.90;;;;;;5045250;23;20226;-94
2024/02/11 03:25:41;;;;;;;1.52;0.47;;;8.80;99.90;;;;;;5045199;23;20186;-94
2024/02/11 03:27:42;;;;;;;3.75;0.50;;;8.70;99.90;;;;;;5069267;23;20178;-95
2024/02/11 03:29:43;;;;;;;2.17;0.70;;;8.80;99.90;;;;;;5044978;23;20277;-94
2024/02/11 03:31:45;;;;;;;4.32;0.47;;;8.70;99.90;;;;;;5069828;23;20214;-96
2024/02/11 03:33:48;;;;;;;6.00;0.43;;;8.60;99.90;;;;;;5070245;23;20604;-93
2024/02/11 03:35:50;;;;;;;2.55;0.20;;;8.70;99.90;;;;;;5069596;23;20205;-94
2024/02/11 03:37:51;;;;;;;3.17;0.45;;;8.70;99.90;;;;;;5045243;23;20182;-95
2024/02/11 03:39:53;;;;;;;7.05;1.02;;;8.70;99.90;;;;;;5045641;23;20158;-95
2024/02/11 03:41:54;;;;;;;9.77;1.02;;;8.60;99.90;;;;;;5045038;23;20169;-93
2024/02/11 03:43:55;;;;;;;1.38;0.60;;;8.50;99.90;;;;;;5045123;23;20154;-93
2024/02/11 03:45:57;;;;;;;1.02;0.43;;;8.60;99.90;;;;;;5045672;23;20184;-94
2024/02/11 03:47:58;;;;;;;5.97;0.57;;;8.60;99.90;;;;;;5045018;23;20209;-95
2024/02/11 03:49:59;;;;;;;5.15;0.40;;;8.60;99.90;;;;;;5045950;23;20249;-94
2024/02/11 03:52:00;;;;;;;2.60;0.65;;;8.50;99.90;;;;;;5069644;23;20508;-95
2024/02/11 03:54:02;;;;;;;1.77;0.25;;;8.50;99.90;;;;;;5069513;23;20153;-94
2024/02/11 03:56:06;;;;;;;7.03;1.27;;;8.50;99.90;;;;;;5071066;23;20134;-94
2024/02/11 03:58:08;;;;;;;2.95;1.58;;;8.50;99.90;;;;;;5044937;23;20269;-93
2024/02/11 04:00:22;;;;;;;2.75;0.55;;;8.50;99.90;;;;;;5069338;23;20217;-93
2024/02/11 04:02:23;;;;;;;3.63;0.52;;;8.50;99.90;;;;;;5068806;23;20153;-95
2024/02/11 04:04:25;;;;;;;1.48;0.50;;;8.50;99.90;;;;;;5045611;23;20162;-95
2024/02/11 04:06:30;;;;;;;6.10;0.85;;;8.50;99.90;;;;;;5068990;23;20154;-95
2024/02/11 04:08:49;;;;;;;5.35;0.77;;;8.60;99.90;;;;;;5068951;23;20256;-93
2024/02/11 04:10:52;;;;;;;1.30;0.60;;;8.50;99.90;;;;;;5044963;23;20597;-93
2024/02/11 04:12:53;;;;;;;6.50;1.05;;;8.40;99.90;;;;;;5044990;23;20177;-93
2024/02/11 04:14:54;;;;;;;8.30;1.00;;;8.30;99.90;;;;;;5069016;23;20169;-95
2024/02/11 04:16:55;;;;;;;6.22;0.95;;;8.40;99.90;;;;;;5044897;23;20154;-94
2024/02/11 04:18:56;;;;;;;1.95;0.85;;;8.40;99.90;;;;;;5069743;23;20157;-93
2024/02/11 04:20:58;;;;;;;4.88;0.60;;;8.50;99.90;;;;;;5069078;23;20153;-94
2024/02/11 04:23:00;;;;;;;4.20;1.10;;;8.40;99.90;;;;;;5044773;23;20181;-94
2024/02/11 04:25:07;;;;;;;7.07;0.93;;;8.30;99.90;;;;;;5045066;23;20182;-93
2024/02/11 04:27:08;;;;;;;4.07;1.15;;;8.30;99.90;;;;;;5045070;23;20202;-93
2024/02/11 04:29:14;;;;;;;9.73;1.00;;;8.30;99.90;;;;;;5069333;23;20192;-94
2024/02/11 04:31:19;;;;;;;1.48;0.70;;;8.20;99.90;;;;;;5093294;23;20621;-94
2024/02/11 04:33:22;;;;;;;5.28;1.15;;;8.20;99.90;;;;;;5045095;23;20242;-95
2024/02/11 04:35:24;;;;;;;11.70;1.85;;;8.20;99.90;;;;;;5044999;23;20166;-93
2024/02/11 04:37:28;;;;;;;1.58;0.65;;;8.20;99.90;;;;;;5093778;23;20191;-94
2024/02/11 04:39:33;;;;;;;3.05;0.90;;;8.20;99.90;;;;;;5069891;23;20541;-92
2024/02/11 04:41:39;;;;;;;7.38;1.00;;;8.40;99.90;;;;;;5044608;23;20185;-94
2024/02/11 04:43:44;;;;;;;4.75;0.95;;;8.30;99.90;;;;;;5068775;23;20157;-95
2024/02/11 04:45:45;;;;;;;4.50;1.17;;;8.30;99.90;;;;;;5044651;23;20549;-94
2024/02/11 04:47:48;;;;;;;2.00;1.33;;;8.40;99.90;;;;;;5044828;23;20182;-92
2024/02/11 04:49:50;;;;;;;5.72;1.73;;;8.50;99.90;;;;;;5069317;23;20276;-93
2024/02/11 04:51:51;;;;;;;12.73;1.77;;;8.50;99.90;;;;;;5044642;23;20189;-93
2024/02/11 04:53:52;;;;;;;9.45;1.00;;;8.50;99.90;;;;;;5044799;23;20162;-95
2024/02/11 04:55:53;;;;;;;6.05;1.52;;;8.50;99.90;;;;;;5044806;23;20154;-93
2024/02/11 04:57:58;;;;;;;4.85;0.93;;;8.60;99.90;;;;;;5044509;23;20189;-94
2024/02/11 05:00:00;;;;;;;1.23;0.57;;;8.40;99.90;;;;;;5044913;23;20320;-95
2024/02/11 05:02:04;;;;;;;7.78;1.25;;;8.40;99.90;;;;;;5069303;23;20176;-94
2024/02/11 05:04:05;;;;;;;2.38;0.88;;;8.40;99.90;;;;;;5068972;23;20150;-94
2024/02/11 05:06:07;;;;;;;5.78;1.35;;;8.40;99.90;;;;;;5069209;23;20668;-94
2024/02/11 05:08:10;;;;;;;18.95;2.65;;;8.40;99.90;;;;;;5044957;23;20174;-95
2024/02/11 05:10:13;;;;;;;4.78;1.77;;;8.40;99.90;;;;;;5068728;23;20193;-95
2024/02/11 05:12:16;;;;;;;6.43;1.50;;;8.50;99.90;;;;;;5045613;23;20628;-94
2024/02/11 05:16:42;;;;;;;7.78;1.52;;;8.50;99.90;;;;;;5097111;23;20176;-95
2024/02/11 05:18:43;;;;;;;7.90;1.25;;;8.50;99.90;;;;;;5071660;23;20209;-92
2024/02/11 05:20:45;;;;;;;3.08;1.23;;;8.50;99.90;;;;;;5024230;23;20166;-94
2024/02/11 05:22:47;;;;;;;17.02;1.98;;;8.50;99.90;;;;;;5047950;23;20154;-92
2024/02/11 05:24:48;;;;;;;4.35;1.95;;;8.50;99.90;;;;;;5047599;23;20154;-93
2024/02/11 05:26:50;;;;;;;7.20;1.80;;;8.60;99.90;;;;;;5047137;23;20159;-92
2024/02/11 05:28:51;;;;;;;3.28;1.35;;;8.60;99.90;;;;;;5071727;23;20149;-92
2024/02/11 05:30:53;;;;;;;8.38;2.42;;;8.60;99.90;;;;;;5047879;23;20159;-92
2024/02/11 05:32:56;;;;;;;4.22;1.98;;;8.60;99.90;;;;;;5047526;23;20151;-92
2024/02/11 05:35:01;;;;;;;10.60;2.03;;;8.60;99.90;;;;;;5071507;23;20229;-93
2024/02/11 05:37:04;;;;;;;15.20;2.95;;;8.60;99.90;;;;;;5047404;23;20157;-91
2024/02/11 05:39:09;;;;;;;7.03;2.53;;;8.60;99.90;;;;;;5048016;23;20242;-94
2024/02/11 05:41:12;;;;;;;18.35;2.03;;;8.60;99.90;;;;;;5072065;23;20703;-94
2024/02/11 05:43:16;;;;;;;8.25;1.88;;;8.60;99.90;;;;;;5070793;23;20244;-94
2024/02/11 05:45:17;;;;;;;6.93;1.63;;;8.60;99.90;;;;;;5072140;23;20615;-92
2024/02/11 05:47:18;;;;;;;7.15;2.55;;;8.60;99.90;;;;;;5047471;23;20546;-91
2024/02/11 05:49:19;;;;;;;7.95;2.38;;;8.60;99.90;;;;;;5047902;23;20260;-93
2024/02/11 05:51:20;;;;;;;7.05;1.80;;;8.60;99.90;;;;;;5047322;23;20226;-93
2024/02/11 05:53:26;;;;;;;9.82;3.05;;;8.70;99.90;;;;;;5023886;23;20155;-92
2024/02/11 05:55:30;;;;;;;8.27;2.20;;;8.70;99.90;;;;;;5070811;23;20179;-93
2024/02/11 05:57:40;;;;;;;12.27;3.80;;;8.80;99.90;;;;;;5069646;23;20173;-94
2024/02/11 05:59:41;;;;;;;7.80;2.40;;;8.70;99.90;;;;;;5046554;23;20194;-93
2024/02/11 06:01:43;;;;;;;5.43;2.13;;;8.60;99.90;;;;;;5047184;23;20154;-92
2024/02/11 06:03:46;;;;;;;6.55;2.88;;;8.60;99.90;;;;;;5047118;23;20193;-94
2024/02/11 06:05:49;;;;;;;6.80;2.28;;;8.60;99.90;;;;;;5023161;23;20155;-93
2024/02/11 06:07:55;;;;;;;7.90;3.00;;;8.70;99.90;;;;;;5048130;23;20247;-92
2024/02/11 06:09:59;;;;;;;4.65;2.15;;;8.70;99.90;;;;;;5048878;23;20277;-92
2024/02/11 06:12:05;;;;;;;10.00;3.15;;;8.60;99.90;;;;;;5048288;23;20229;-94
2024/02/11 06:14:11;;;;;;;22.85;4.47;;;8.60;99.90;;;;;;5023491;23;20582;-92
2024/02/11 06:16:23;;;;;;;12.45;3.25;;;8.60;99.90;;;;;;5049605;23;20173;-93
2024/02/11 06:18:30;;;;;;;15.75;2.50;;;8.60;99.90;;;;;;5073428;23;20252;-95
2024/02/11 06:20:33;;;;;;;7.80;2.15;;;8.60;99.90;;;;;;5072497;23;20150;-93
2024/02/11 06:22:38;;;;;;;5.18;2.35;;;8.60;99.90;;;;;;5049403;23;20158;-92
2024/02/11 06:24:39;;;;;;;3.70;1.90;;;8.60;99.90;;;;;;5050168;23;20649;-94
2024/02/11 06:26:43;;;;;;;12.68;2.85;;;8.60;99.90;;;;;;5050621;23;20298;-95
2024/02/11 06:28:56;;;;;;;9.60;2.20;;;8.60;99.90;;;;;;5049109;23;20177;-93
2024/02/11 06:31:11;;;;;;;11.25;3.03;;;8.60;99.90;;;;;;5025296;23;20193;-93
2024/02/11 06:33:16;;;;;;;7.32;2.10;;;8.60;99.90;;;;;;5025819;23;20186;-92
2024/02/11 06:35:18;;;;;;;5.70;2.05;;;8.70;99.90;;;;;;5073573;23;20157;-95
2024/02/11 06:37:20;;;;;;;17.92;2.53;;;8.80;99.90;;;;;;5072994;23;20170;-94
2024/02/11 06:39:24;;;;;;;7.47;2.92;;;8.80;99.90;;;;;;5050142;23;20161;-95
2024/02/11 06:41:31;;;;;;;7.68;2.28;;;8.80;99.90;;;;;;5023510;23;20163;-93
2024/02/11 06:43:36;;;;;;;6.35;2.42;;;8.70;99.90;;;;;;5049145;23;20154;-96
2024/02/11 06:45:46;;;;;;;7.57;2.17;;;8.80;99.90;;;;;;5049894;23;20341;-93
2024/02/11 06:47:47;;;;;;;7.25;2.10;;;8.80;99.90;;;;;;5071730;23;20544;-93
2024/02/11 06:49:54;;;;;;;4.25;2.47;;;8.80;99.90;;;;;;5048753;23;20197;-96
2024/02/11 06:52:14;;;;;;;8.05;2.58;;;8.90;99.90;;;;;;5051574;23;20161;-94
2024/02/11 06:54:15;;;;;;;11.02;2.55;;;8.80;99.90;;;;;;5023689;23;20165;-92
2024/02/11 06:56:28;;;;;;;8.40;2.80;;;8.80;99.90;;;;;;5047464;23;20464;-94
2024/02/11 06:58:37;;;;;;;6.78;1.65;;;8.80;99.90;;;;;;5047046;23;20237;-93
2024/02/11 07:00:38;;;;;;;2.40;1.40;;;8.70;99.90;;;;;;5048712;23;20204;-93
2024/02/11 07:03:00;;;;;;;8.57;2.00;;;8.80;99.90;;;;;;5072443;23;20240;-93
2024/02/11 07:05:02;;;;;;;21.05;2.67;;;8.90;99.90;;;;;;5046253;23;20157;-94
2024/02/11 07:07:03;;;;;;;11.65;3.90;;;9.00;99.90;;;;;;5024007;23;20249;-92
2024/02/11 07:09:10;;;;;;;17.23;2.47;;;8.90;99.90;;;;;;5022857;23;20155;-93
2024/02/11 07:11:16;;;;;;;12.85;3.13;;;8.90;99.90;;;;;;5051442;23;20158;-92
2024/02/11 07:13:20;;;;;;;10.02;2.53;;;8.80;99.90;;;;;;5047913;23;20154;-94
2024/02/11 07:15:33;;;;;;;7.10;2.13;;;8.80;99.90;;;;;;5049204;23;20197;-93
2024/02/11 07:17:36;;;;;;;4.18;2.55;;;8.90;99.90;;;;;;5047956;23;20650;-92
2024/02/11 07:19:37;;;;;;;13.93;2.70;;;8.80;99.90;;;;;;5047990;23;20158;-91
2024/02/11 07:21:41;;;;;;;7.50;2.03;;;8.90;99.90;;;;;;5048246;23;20254;-93
2024/02/11 07:23:50;;;;;;;8.77;1.88;;;8.90;99.90;;;;;;5070737;23;20154;-95
2024/02/11 07:25:54;;;;;;;6.65;1.48;;;8.80;99.90;;;;;;5022867;23;20222;-95
2024/02/11 07:28:23;;;;;;;8.38;2.05;;;8.80;99.90;;;;;;5053804;23;20261;-94
2024/02/11 07:30:24;;;;;;;5.90;2.80;;;8.80;99.90;;;;;;5049118;23;20209;-95
2024/02/11 07:32:25;;;;;;;8.65;2.97;;;8.70;99.90;;;;;;5047587;23;20530;-94
2024/02/11 07:34:36;;;;;;;4.30;2.17;;;8.70;99.90;;;;;;5071161;23;20235;-94
2024/02/11 07:36:42;;;;;;;10.18;3.10;;;8.80;99.90;;;;;;5071783;23;20173;-92
2024/02/11 07:38:51;;;;;;;13.10;2.50;;;8.80;99.90;;;;;;5046463;23;20186;-94
2024/02/11 07:40:53;;;;;;;7.07;2.03;;;8.90;99.90;;;;;;5047999;23;20237;-93
2024/02/11 07:42:54;;;;;;;11.32;2.28;;;8.90;99.90;;;;;;5048416;23;20583;-95
2024/02/11 07:44:55;;;;;;;8.32;2.33;;;8.90;99.90;;;;;;5000257;23;20283;-93
2024/02/11 07:46:57;;;;;;;6.82;2.33;;;8.80;99.90;;;;;;5048675;23;20173;-93
2024/02/11 07:49:03;;;;;;;17.25;2.90;;;8.90;99.90;;;;;;5051804;23;20168;-94
2024/02/11 07:51:08;;;;;;;6.20;1.88;;;8.90;99.90;;;;;;5050046;23;20162;-93
2024/02/11 07:53:19;;;;;;;8.02;1.88;;;8.90;99.90;;;;;;5049578;23;20150;-93
2024/02/11 07:55:24;;;;;;;8.85;2.35;;;8.90;99.90;;;;;;5025239;23;20159;-94
2024/02/11 07:57:26;;;;;;;8.43;2.30;;;8.90;99.90;;;;;;5074262;23;20169;-94
2024/02/11 07:59:35;;;;;;;7.97;1.55;;;8.90;99.90;;;;;;5046185;23;20150;-92
2024/02/11 08:01:36;;;;;;;4.72;2.17;;;8.90;99.90;;;;;;5049362;23;20153;-92
2024/02/11 08:03:37;;;;;;;6.68;2.35;;;9.00;99.90;;;;;;5046912;23;20158;-92
2024/02/11 08:05:39;;;;;;;11.18;2.15;;;9.10;99.90;;;;;;5025747;23;20155;-95
2024/02/11 08:07:40;;;;;;;7.43;1.83;;;9.10;99.90;;;;;;5025119;23;20171;-92
2024/02/11 08:09:41;;;;;;;2.88;1.33;;;9.00;99.90;;;;;;5071131;23;20616;-92
2024/02/11 08:11:44;;;;;;;10.93;2.20;;;9.00;99.90;;;;;;5047496;23;20159;-92
2024/02/11 08:13:47;;;;;;;3.70;1.05;;;9.00;99.90;;;;;;5047149;23;20653;-92
2024/02/11 08:15:48;;;;;;;4.50;1.92;;;9.00;99.90;;;;;;5027405;23;20190;-96
2024/02/11 08:17:50;;;;;;;4.85;1.60;;;9.10;99.90;;;;;;5024941;23;20178;-93
2024/02/11 08:19:51;;;;;;;7.75;2.53;;;9.10;99.90;;;;;;5046394;23;20158;-93
2024/02/11 08:21:55;;;;;;;6.63;2.47;;;9.10;99.90;;;;;;5023901;23;20158;-92
2024/02/11 08:23:56;;;;;;;5.63;1.90;;;9.10;99.90;;;;;;5047611;23;20150;-92
2024/02/11 08:26:07;;;;;;;14.10;1.83;;;9.10;99.90;;;;;;5074456;23;20497;-93
2024/02/11 08:28:08;;;;;;;18.02;2.58;;;9.10;99.90;;;;;;5023085;23;20642;-93
2024/02/11 08:30:16;;;;;;;6.60;1.45;;;9.20;99.90;;;;;;5047741;23;20200;-93
2024/02/11 08:32:17;;;;;;;9.38;2.33;;;9.30;99.90;;;;;;5048308;23;20150;-93
2024/02/11 08:34:21;;;;;;;6.20;2.05;;;9.30;99.90;;;;;;5047567;23;20158;-92
2024/02/11 08:36:24;;;;;;;6.70;1.33;;;9.30;99.90;;;;;;5024575;23;20542;-96
2024/02/11 08:38:28;;;;;;;7.55;2.00;;;9.30;99.90;;;;;;5024639;23;20322;-94
2024/02/11 08:40:33;;;;;;;4.45;1.17;;;9.30;99.90;;;;;;5046694;23;20154;-95
2024/02/11 08:42:37;;;;;;;5.40;1.42;;;9.30;99.90;;;;;;5048047;23;20225;-92
2024/02/11 08:44:41;;;;;;;5.30;1.40;;;9.20;99.90;;;;;;5046774;23;20240;-93
2024/02/11 08:46:45;;;;;;;10.45;2.78;;;9.20;99.90;;;;;;5048035;23;20605;-92
2024/02/11 08:48:50;;;;;;;5.25;1.98;;;9.20;99.90;;;;;;5049385;23;20265;-95
2024/02/11 08:50:51;;;;;;;4.80;1.77;;;9.10;99.90;;;;;;5048490;23;20727;-92
2024/02/11 08:52:56;;;;;;;12.23;2.13;;;9.10;99.90;;;;;;5023926;23;20494;-91
2024/02/11 08:54:59;;;;;;;3.53;1.50;;;9.10;99.90;;;;;;5026090;23;20151;-92
2024/02/11 08:57:01;;;;;;;8.85;2.00;;;9.20;99.90;;;;;;5049878;23;20653;-93
2024/02/11 08:59:03;;;;;;;2.08;1.40;;;9.30;99.90;;;;;;5047782;23;20605;-94
2024/02/11 09:01:05;;;;;;;4.90;1.92;;;9.40;99.90;;;;;;5048751;23;20158;-92
2024/02/11 09:03:09;;;;;;;16.75;2.40;;;9.40;99.90;;;;;;5048513;23;20181;-93
2024/02/11 09:05:15;;;;;;;8.30;2.28;;;9.40;99.90;;;;;;5048485;23;20221;-93
2024/02/11 09:07:22;;;;;;;6.65;1.73;;;9.40;99.90;;;;;;5045219;23;20173;-93
2024/02/11 09:09:26;;;;;;;6.70;1.70;;;9.30;99.90;;;;;;5025120;23;20195;-94
2024/02/11 09:11:30;;;;;;;4.10;1.20;;;9.30;99.90;;;;;;5046827;23;20154;-93
2024/02/11 09:13:40;;;;;;;4.05;1.95;;;9.20;99.90;;;;;;5024238;23;20159;-93
2024/02/11 09:15:54;;;;;;;6.55;1.27;;;9.20;99.90;;;;;;5047415;23;20633;-94
2024/02/11 09:18:10;;;;;;;10.93;2.13;;;9.20;99.90;;;;;;5048343;23;20185;-92
2024/02/11 09:20:20;;;;;;;10.73;1.70;;;9.10;99.90;;;;;;5047764;23;20194;-93
2024/02/11 09:22:21;;;;;;;7.60;1.90;;;9.20;99.90;;;;;;5047687;23;20160;-91
2024/02/11 09:24:26;;;;;;;3.88;1.60;;;9.10;99.90;;;;;;5023016;23;20170;-92
2024/02/11 09:26:30;;;;;;;8.05;1.88;;;9.10;99.90;;;;;;5046711;23;20154;-92
2024/02/11 09:28:34;;;;;;;6.43;1.80;;;9.20;99.90;;;;;;5045475;23;20178;-93
2024/02/11 09:31:06;;;;;;;14.07;1.52;;;9.30;99.90;;;;;;5046297;23;20214;-93
2024/02/11 09:33:07;;;;;;;1.58;0.93;;;9.40;99.90;;;;;;5047165;23;20182;-92
2024/02/11 09:35:17;;;;;;;4.25;1.85;;;9.40;99.90;;;;;;5046898;23;20164;-93
2024/02/11 09:37:18;;;;;;;13.43;2.40;;;9.50;99.90;;;;;;5047599;23;20458;-93
2024/02/11 09:39:40;;;;;;;9.18;2.25;;;9.60;99.90;;;;;;5047631;23;20161;-93
2024/02/11 09:41:41;;;;;;;7.18;1.27;;;9.70;99.90;;;;;;5045358;23;20230;-93
2024/02/11 09:43:46;;;;;;;14.50;1.77;;;9.90;99.90;;;;;;5050136;23;20201;-95
2024/02/11 09:45:50;;;;;;;3.40;1.90;;;10.10;99.90;;;;;;5023473;23;20156;-93
2024/02/11 09:48:00;;;;;;;21.45;2.42;;;10.10;99.90;;;;;;5048939;23;20209;-92
2024/02/11 09:50:15;;;;;;;11.40;1.60;;;10.20;99.90;;;;;;5025042;23;20229;-94
2024/02/11 09:52:20;;;;;;;9.18;1.65;;;10.10;99.90;;;;;;5048343;23;20159;-94
2024/02/11 09:56:59;;;;;;;5.00;2.05;;;10.30;99.90;;;;;;5023284;23;20153;-94
2024/02/11 09:59:14;;;;;;;5.30;1.42;;;10.60;99.90;;;;;;5046198;23;20158;-94
2024/02/11 10:01:49;;;;;;;10.25;2.65;;;10.40;99.90;;;;;;5041610;23;20159;-93
2024/02/11 10:03:57;;;;;;;3.38;1.00;;;10.30;99.90;;;;;;5048122;23;20751;-93
2024/02/11 10:06:12;;;;;;;2.75;1.25;;;10.30;99.90;;;;;;5048564;23;20165;-96
2024/02/11 10:08:29;;;;;;;8.02;1.15;;;10.40;99.90;;;;;;5050242;23;20206;-93
2024/02/11 10:11:02;;;;;;;13.35;1.52;;;10.40;99.90;;;;;;5049232;23;20185;-96
2024/02/11 10:13:44;;;;;;;6.53;1.73;;;10.50;99.90;;;;;;5049975;23;20592;-93
2024/02/11 10:16:07;;;;;;;11.20;1.25;;;10.70;99.90;;;;;;5049138;23;20189;-93
2024/02/11 10:18:11;;;;;;;4.20;1.45;;;10.80;99.90;;;;;;5049946;23;20922;-94
2024/02/11 10:20:43;;;;;;;5.70;1.00;;;10.90;99.90;;;;;;5026211;23;20249;-93
2024/02/11 10:23:03;;;;;;;4.78;1.27;;;10.70;99.90;;;;;;5047776;23;20158;-93
2024/02/11 10:25:16;;;;;;;1.92;0.88;;;10.50;99.90;;;;;;5047868;23;20158;-93
2024/02/11 10:27:25;;;;;;;1.35;0.52;;;10.60;99.90;;;;;;5049203;23;20193;-93
2024/02/11 10:29:34;;;;;;;5.93;0.88;;;10.70;99.90;;;;;;5049341;23;20189;-94
2024/02/11 10:31:38;;;;;;;7.35;1.70;;;10.80;99.90;;;;;;5048919;23;20280;-93
2024/02/11 10:34:01;;;;;;;3.35;0.68;;;11.00;99.90;;;;;;5049167;23;20155;-95
2024/02/11 10:36:41;;;;;;;2.10;0.77;;;11.10;99.90;;;;;;5053126;23;20294;-94
2024/02/11 10:38:54;;;;;;;1.35;0.55;;;11.10;99.90;;;;;;5036887;23;20157;-93
2024/02/11 10:41:06;;;;;;;2.00;0.73;;;11.20;99.90;;;;;;5047125;23;20158;-92
2024/02/11 10:43:51;;;;;;;8.75;0.70;;;11.40;99.90;;;;;;5048989;23;20157;-93
2024/02/11 10:46:44;;;;;;;8.55;0.82;;;11.40;99.90;;;;;;4999191;23;20175;-94
2024/02/11 10:48:52;;;;;;;0.70;0.40;;;11.40;99.90;;;;;;5072754;23;20177;-93
2024/02/11 10:51:08;;;;;;;1.83;0.77;;;11.50;99.90;;;;;;5047783;23;20198;-94
2024/02/11 10:53:50;;;;;;;2.80;0.65;;;11.30;99.90;;;;;;5023935;23;20241;-92
2024/02/11 10:56:13;;;;;;;4.57;0.90;;;11.50;99.90;;;;;;5004524;23;20163;-95
2024/02/11 10:58:24;;;;;;;6.85;1.02;;;11.10;99.90;;;;;;5023685;23;20182;-93
2024/02/11 11:00:35;;;;;;;2.85;0.85;;;11.20;99.90;;;;;;5049597;23;20190;-95
2024/02/11 11:02:57;;;;;;;5.63;1.23;;;10.90;99.90;;;;;;5046576;23;20154;-93